aviador You're here:

LFBU Decoded Metar

ANGOULEME in FRANCE
Report Time2017-10-17 20:00:00
UTC Time2017-10-17 20:35:25
Flight Rules vfr VFR
Wind160° at 09 kt
W.Decomp.*RWY 10: 4.4 kt HW 7.9 kt RCW
W.Rank160° ranks 3
Current wind is above 160° avg. (6.8)
Visibility9999 m
Phenomena:N/A
Clouds:N/A
Expected CloudBase > 3,600 ft AGL from Temp-Dew spread
CeilingNone
Temp20°C (ISA +6)
Dew Point11°C (56% RH)
AAT17.1°C
QNH1015 hPa
Density Alt1,234 ft
Elevation436 ft
Report Wrong Elevation
Raw Report
METAR LFBU 172000Z AUTO 16009KT CAVOK 20/11 Q1015 NOSIG=

Extra information for LFBU:More info

Metar Taf Metar & Taf Last 4 Metars F.Rules Stats Wind Profile Meteogram Temp Stats Airport Information Weather charts Add Link Nearby VenuesMetar ALERT Operation Metar Decoded Social comments